Terminal Aerodrome Forecast
Issued by NWS

Home | Current Version | Previous Version | Text Only | Print | Product List | Glossary On
Versions: 1 2 3 4 5 6 7 8 9 10 11 12 13 14 15 16
000
FTUS43 KIWX 301100
TAFSBN
TAF
KSBN 301120Z 3012/3112 27004KT P6SM SCT100
     FM301500 30010KT P6SM SCT040 BKN100
     FM302300 27003KT P6SM SCT050=

USA.gov is the U.S. government's official web portal to all federal, state and local government web resources and services.